createdAt,value
2018-11-06T00:00:50.724Z,72.33
2018-11-06T00:05:45.236Z,33.77
2018-11-06T00:10:39.627Z,74.63
2018-11-06T00:15:34.064Z,73.50
2018-11-06T00:20:28.444Z,34.37
2018-11-06T00:25:22.841Z,38.67
2018-11-06T00:30:17.266Z,23.53
2018-11-06T00:35:13.019Z,31.93
2018-11-06T00:40:07.577Z,28.87
2018-11-06T00:45:01.980Z,38.40
2018-11-06T00:49:56.376Z,50.77
2018-11-06T00:54:50.864Z,34.67
2018-11-06T00:59:45.263Z,50.83
2018-11-06T01:04:39.697Z,25.63
2018-11-06T01:09:34.093Z,32.37
2018-11-06T01:14:28.554Z,23.27
2018-11-06T01:19:22.957Z,25.63
2018-11-06T01:24:17.383Z,66.73
2018-11-06T01:29:11.769Z,85.07
2018-11-06T01:34:06.275Z,60.60
2018-11-06T01:39:00.657Z,55.43
2018-11-06T01:43:55.183Z,41.60
2018-11-06T01:48:49.588Z,30.40
2018-11-06T01:53:44.094Z,29.57
2018-11-06T01:58:38.500Z,54.87
2018-11-06T02:03:32.921Z,19.87
2018-11-06T02:08:27.463Z,17.97
2018-11-06T02:13:21.868Z,14.17
2018-11-06T02:18:16.255Z,14.30
2018-11-06T02:23:10.679Z,20.10
2018-11-06T02:28:05.266Z,23.80
2018-11-06T02:32:59.907Z,26.27
2018-11-06T02:37:54.283Z,69.00
2018-11-06T02:42:48.710Z,129.20
2018-11-06T02:47:43.569Z,102.20
2018-11-06T02:52:38.019Z,128.60
2018-11-06T02:57:32.429Z,127.33
2018-11-06T03:02:26.850Z,98.47
2018-11-06T03:07:21.264Z,77.53
2018-11-06T03:12:15.732Z,126.93
2018-11-06T03:17:10.138Z,74.07
2018-11-06T03:22:04.578Z,80.60
2018-11-06T03:26:59.062Z,54.83
2018-11-06T03:31:53.491Z,106.80
2018-11-06T03:36:47.881Z,85.30
2018-11-06T03:41:42.276Z,60.87
2018-11-06T03:46:36.673Z,122.10
2018-11-06T03:51:31.635Z,104.53
2018-11-06T03:56:26.029Z,56.30
2018-11-06T04:01:20.490Z,103.57
2018-11-06T04:06:14.883Z,119.57
2018-11-06T04:11:09.739Z,32.47
2018-11-06T04:16:04.125Z,87.80
2018-11-06T04:20:58.557Z,43.43
2018-11-06T04:25:52.999Z,26.60
2018-11-06T04:30:47.406Z,26.37
2018-11-06T04:35:41.788Z,24.47
2018-11-06T04:40:36.218Z,26.23
2018-11-06T04:45:30.634Z,29.90
2018-11-06T04:50:25.974Z,18.67
2018-11-06T04:55:20.450Z,19.90
2018-11-06T05:00:15.816Z,22.13
2018-11-06T05:05:10.629Z,22.93
2018-11-06T05:10:05.833Z,27.50
2018-11-06T05:15:00.237Z,26.93
2018-11-06T05:19:54.643Z,21.87
2018-11-06T05:24:49.060Z,18.17
2018-11-06T05:29:43.469Z,22.97
2018-11-06T05:34:37.988Z,23.30
2018-11-06T05:39:32.504Z,35.50
2018-11-06T05:44:26.927Z,27.50
2018-11-06T05:49:21.365Z,20.23
2018-11-06T05:54:15.830Z,20.83
2018-11-06T05:59:10.344Z,16.67
2018-11-06T06:04:04.800Z,23.30
2018-11-06T06:08:59.257Z,31.73
2018-11-06T06:13:53.880Z,24.67
2018-11-06T06:18:48.349Z,26.80
2018-11-06T06:23:42.769Z,18.33
2018-11-06T06:28:37.537Z,19.70
2018-11-06T06:33:31.857Z,22.03
2018-11-06T06:38:26.312Z,22.73
2018-11-06T06:43:20.696Z,26.10
2018-11-06T06:48:15.739Z,21.20
2018-11-06T06:53:10.280Z,23.27
2018-11-06T06:58:05.029Z,22.80
2018-11-06T07:02:59.848Z,22.80
2018-11-06T07:07:54.600Z,21.27
2018-11-06T07:12:53.224Z,20.87
2018-11-06T07:17:49.078Z,23.80
2018-11-06T07:22:43.702Z,22.57
2018-11-06T07:27:38.607Z,24.67
2018-11-06T07:32:33.244Z,16.33
2018-11-06T07:37:27.681Z,15.87
2018-11-06T07:42:22.264Z,15.63
2018-11-06T07:47:17.831Z,15.60
2018-11-06T07:52:12.264Z,16.67
2018-11-06T07:57:06.717Z,15.17
2018-11-06T08:02:01.233Z,13.67
2018-11-06T08:06:56.065Z,14.93
2018-11-06T08:11:50.541Z,15.20
2018-11-06T08:16:45.325Z,16.10
2018-11-06T08:21:40.177Z,11.17
2018-11-06T08:26:35.082Z,13.00
2018-11-06T08:31:30.574Z,12.97
2018-11-06T08:36:26.144Z,14.73
2018-11-06T08:41:21.019Z,12.73
2018-11-06T08:46:16.339Z,14.10
2018-11-06T08:51:12.099Z,14.60
2018-11-06T08:56:11.595Z,12.90
2018-11-06T09:01:06.949Z,13.47
2018-11-06T09:06:01.917Z,13.10
2018-11-06T09:10:57.723Z,12.37
2018-11-06T09:15:53.046Z,11.10
2018-11-06T09:20:47.984Z,12.77
2018-11-06T09:25:43.052Z,12.13
2018-11-06T09:30:38.109Z,12.37
2018-11-06T09:35:35.397Z,14.33
2018-11-06T09:45:25.438Z,10.67
2018-11-06T09:50:20.948Z,13.93
2018-11-06T09:55:17.428Z,13.33
2018-11-06T10:00:16.224Z,12.47
2018-11-06T10:05:12.490Z,12.73
2018-11-06T10:10:10.844Z,17.50
2018-11-06T10:15:07.299Z,13.83
2018-11-06T10:20:02.694Z,14.80
2018-11-06T10:25:00.118Z,11.23
2018-11-06T10:29:55.373Z,11.10
2018-11-06T10:34:53.368Z,14.37
2018-11-06T10:39:48.086Z,11.10
2018-11-06T10:44:42.616Z,13.37
2018-11-06T10:49:39.560Z,10.83
2018-11-06T10:54:34.320Z,13.30
2018-11-06T10:59:28.864Z,10.40
2018-11-06T11:04:28.004Z,22.43
2018-11-06T11:09:25.893Z,9.30
2018-11-06T11:14:21.213Z,12.60
2018-11-06T11:19:15.807Z,11.40
2018-11-06T11:24:10.549Z,9.07
2018-11-06T11:29:06.173Z,9.57
2018-11-06T11:34:01.107Z,8.97
2018-11-06T11:38:57.711Z,8.33
2018-11-06T11:43:52.829Z,8.90
2018-11-06T11:48:47.373Z,11.33
2018-11-06T11:53:41.948Z,13.23
2018-11-06T11:58:37.968Z,7.57
2018-11-06T12:03:34.164Z,10.10
2018-11-06T12:08:30.348Z,12.00
2018-11-06T12:13:24.890Z,6.83
2018-11-06T12:18:19.447Z,13.23
2018-11-06T12:23:14.300Z,9.27
2018-11-06T12:28:20.777Z,10.27
2018-11-06T12:33:28.766Z,8.80
2018-11-06T12:38:35.353Z,12.50
2018-11-06T12:43:44.297Z,8.90
2018-11-06T12:48:50.545Z,10.87
2018-11-06T12:53:45.532Z,9.33
2018-11-06T12:58:41.049Z,13.50
2018-11-06T13:03:36.037Z,13.23
2018-11-06T13:08:30.777Z,17.77
2018-11-06T13:13:26.104Z,8.13
2018-11-06T13:18:21.472Z,10.57
2018-11-06T13:23:15.997Z,8.73
2018-11-06T13:28:11.318Z,10.27
2018-11-06T13:33:06.258Z,12.07
2018-11-06T13:38:00.849Z,14.03
2018-11-06T13:42:55.647Z,11.23
2018-11-06T13:47:49.871Z,8.77
2018-11-06T13:52:44.375Z,10.60
2018-11-06T13:57:38.988Z,12.07
2018-11-06T14:02:33.505Z,12.90
2018-11-06T14:07:30.302Z,15.57
2018-11-06T14:12:25.463Z,10.87
2018-11-06T14:17:20.500Z,10.20
2018-11-06T14:22:15.109Z,12.00
2018-11-06T14:27:10.357Z,13.27
2018-11-06T14:32:06.839Z,10.63
2018-11-06T14:37:02.014Z,15.53
2018-11-06T14:41:57.126Z,12.33
2018-11-06T14:46:52.868Z,14.83
2018-11-06T14:51:48.963Z,12.63
2018-11-06T14:56:50.243Z,13.13
2018-11-06T15:01:50.949Z,15.37
2018-11-06T15:06:53.445Z,17.40
2018-11-06T15:11:49.451Z,10.47
2018-11-06T15:16:44.858Z,11.37
2018-11-06T15:21:43.864Z,10.57
2018-11-06T15:26:45.271Z,8.63
2018-11-06T15:31:39.829Z,7.37
2018-11-06T15:36:34.610Z,6.87
2018-11-06T15:41:31.890Z,18.27
2018-11-06T15:46:29.881Z,9.17
2018-11-06T15:51:32.114Z,9.63
2018-11-06T15:56:28.849Z,8.90
2018-11-06T16:01:27.796Z,11.47
2018-11-06T16:06:26.551Z,8.77
2018-11-06T16:11:30.763Z,7.23
2018-11-06T16:16:33.774Z,9.83
2018-11-06T16:21:30.790Z,8.27
2018-11-06T16:26:31.877Z,7.90
2018-11-06T16:31:29.535Z,10.40
2018-11-06T16:36:32.297Z,9.57
2018-11-06T16:41:32.647Z,11.83
2018-11-06T16:46:27.292Z,10.77
2018-11-06T16:51:21.771Z,8.93
2018-11-06T16:56:16.567Z,8.70
2018-11-06T17:01:11.259Z,8.27
2018-11-06T17:06:05.848Z,9.67
2018-11-06T17:11:00.318Z,9.03
2018-11-06T17:16:19.743Z,9.77
2018-11-06T17:21:14.200Z,7.30
2018-11-06T17:26:19.487Z,7.43
2018-11-06T17:31:14.217Z,7.47
2018-11-06T17:36:08.676Z,6.93
2018-11-06T17:41:03.862Z,7.37
2018-11-06T17:46:00.945Z,7.93
2018-11-06T17:50:58.349Z,6.47
2018-11-06T17:55:55.576Z,5.77
2018-11-06T18:00:50.189Z,6.57
2018-11-06T18:05:44.712Z,4.37
2018-11-06T18:10:39.418Z,6.77
2018-11-06T18:15:33.852Z,2.87
2018-11-06T18:20:28.324Z,7.50
2018-11-06T18:25:22.935Z,3.53
2018-11-06T18:30:18.321Z,4.13
2018-11-06T18:35:14.453Z,3.87
2018-11-06T18:40:12.772Z,2.60
2018-11-06T18:45:07.502Z,3.00
2018-11-06T18:50:02.041Z,3.83
2018-11-06T18:54:56.576Z,2.50
2018-11-06T18:59:51.126Z,2.73
2018-11-06T19:04:45.649Z,2.73
2018-11-06T19:09:40.138Z,3.33
2018-11-06T19:14:34.661Z,2.60
2018-11-06T19:19:29.136Z,4.37
2018-11-06T19:24:23.775Z,3.03
2018-11-06T19:29:18.285Z,4.67
2018-11-06T19:34:12.767Z,3.40
2018-11-06T19:39:11.138Z,3.20
2018-11-06T19:44:05.662Z,3.73
2018-11-06T19:49:00.165Z,3.00
2018-11-06T19:53:54.597Z,3.90
2018-11-06T19:58:49.008Z,3.70
2018-11-06T20:03:43.454Z,4.37
2018-11-06T20:08:37.922Z,4.27
2018-11-06T20:13:32.400Z,12.13
2018-11-06T20:18:26.814Z,6.27
2018-11-06T20:23:21.326Z,5.40
2018-11-06T20:28:15.906Z,3.50
2018-11-06T20:33:10.427Z,4.10
2018-11-06T20:38:04.772Z,3.70
2018-11-06T20:42:59.377Z,5.07
2018-11-06T20:47:53.625Z,3.50
2018-11-06T20:52:48.401Z,3.13
2018-11-06T20:57:42.900Z,3.53
2018-11-06T21:02:37.338Z,6.57
2018-11-06T21:07:31.761Z,6.43
2018-11-06T21:12:26.200Z,6.97
2018-11-06T21:17:20.606Z,8.03
2018-11-06T21:22:15.027Z,8.37
2018-11-06T21:27:09.773Z,7.67
2018-11-06T21:32:04.613Z,5.40
2018-11-06T21:36:59.030Z,6.07
2018-11-06T21:41:53.537Z,4.80
2018-11-06T21:46:47.911Z,8.27
2018-11-06T21:51:42.376Z,6.83
2018-11-06T21:56:36.786Z,5.13
2018-11-06T22:01:31.233Z,5.90
2018-11-06T22:06:25.919Z,5.67
2018-11-06T22:11:20.335Z,6.67
2018-11-06T22:16:14.757Z,6.10
2018-11-06T22:21:09.187Z,8.53
2018-11-06T22:26:03.641Z,5.90
2018-11-06T22:30:58.077Z,10.43
2018-11-06T22:35:52.545Z,7.00
2018-11-06T22:40:46.961Z,7.30
2018-11-06T22:45:41.376Z,10.37
2018-11-06T22:50:35.847Z,8.33
2018-11-06T22:55:30.284Z,5.80
2018-11-06T23:00:29.949Z,5.63
2018-11-06T23:05:24.369Z,5.70
2018-11-06T23:10:18.816Z,5.37
2018-11-06T23:15:13.275Z,7.37
2018-11-06T23:20:08.745Z,7.13
2018-11-06T23:25:03.245Z,7.90
2018-11-06T23:29:57.582Z,6.90
2018-11-06T23:34:51.980Z,7.97
2018-11-06T23:39:46.379Z,6.70
2018-11-06T23:44:40.891Z,9.17
2018-11-06T23:49:35.297Z,7.53
2018-11-06T23:54:29.691Z,5.57
2018-11-06T23:59:24.128Z,11.53
